Data Viewer
| City | State | Eastern Time | Source | Temp | DewPt | RH | BP | 5 Min Precip | Wind Speed | Wind Dir | 5 Min Wind Max | 5 Min Wind Max Dir |
|---|---|---|---|---|---|---|---|---|---|---|---|---|
| Linden | NJ | 2026-05-08 03:55 | AWOS | 50 | 36 | 58 | 29.86 | 9 | N | |||
| Linden | NJ | 2026-05-08 22:15 | AWOS | 60 | 39 | 46 | 29.92 | 6 | SSE | |||
| Linden | NJ | 2026-05-08 17:35 | AWOS | 64 | 36 | 35 | 29.86 | 10 | WNW | |||
| Linden | NJ | 2026-05-08 17:55 | AWOS | 64 | 36 | 36 | 29.86 | 7 | WNW | |||
| Linden | NJ | 2026-05-08 18:15 | AWOS | 64 | 36 | 36 | 29.86 | 9 | NW | |||
| Linden | NJ | 2026-05-08 18:35 | AWOS | 63 | 36 | 37 | 29.86 | 9 | NNW | |||
| Linden | NJ | 2026-05-08 18:55 | AWOS | 62 | 36 | 38 | 29.86 | 7 | NW | |||
| Linden | NJ | 2026-05-08 19:15 | AWOS | 62 | 36 | 39 | 29.86 | 5 | NNE | |||
| Linden | NJ | 2026-05-08 19:35 | AWOS | 61 | 36 | 40 | 29.87 | 3 | NE | |||
| Linden | NJ | 2026-05-08 19:55 | AWOS | 61 | 37 | 41 | 29.88 | 3 | NNE | |||
| Linden | NJ | 2026-05-08 20:15 | AWOS | 61 | 37 | 41 | 29.88 | 3 | NE | |||
| Linden | NJ | 2026-05-08 20:35 | AWOS | 60 | 37 | 41 | 29.87 | 3 | NE | |||
| Linden | NJ | 2026-05-08 20:55 | AWOS | 61 | 39 | 44 | 29.88 | 3 | E | |||
| Linden | NJ | 2026-05-08 21:15 | AWOS | 60 | 39 | 46 | 29.89 | 3 | SE | |||
| Linden | NJ | 2026-05-08 21:35 | AWOS | 60 | 38 | 44 | 29.90 | 3 | SE | |||
| Linden | NJ | 2026-05-08 21:55 | AWOS | 60 | 39 | 46 | 29.91 | 0 | N | |||
| Linden | NJ | 2026-05-08 22:35 | AWOS | 59 | 40 | 50 | 29.93 | 0 | N | |||
| Linden | NJ | 2026-05-08 16:55 | AWOS | 63 | 34 | 34 | 29.87 | 12 | WNW | |||
| Linden | NJ | 2026-05-08 22:55 | AWOS | 59 | 40 | 49 | 29.92 | 0 | N | |||
| Linden | NJ | 2026-05-08 23:15 | AWOS | 58 | 41 | 52 | 29.92 | 0 | N | |||
| Linden | NJ | 2026-05-08 23:35 | AWOS | 58 | 41 | 54 | 29.92 | 3 | NNE | |||
| Linden | NJ | 2026-05-08 23:55 | AWOS | 57 | 41 | 55 | 29.91 | 0 | N | |||
| Linden | NJ | 2026-05-09 00:15 | AWOS | 57 | 41 | 55 | 29.91 | 0 | N | |||
| Linden | NJ | 2026-05-09 00:35 | AWOS | 57 | 40 | 53 | 29.92 | 0 | N | |||
| Linden | NJ | 2026-05-09 00:55 | AWOS | 58 | 40 | 51 | 29.92 | 0 | N | |||
| Linden | NJ | 2026-05-09 01:15 | AWOS | 57 | 40 | 52 | 29.92 | 0 | N | |||
| Linden | NJ | 2026-05-09 01:35 | AWOS | 57 | 41 | 55 | 29.92 | 0 | N | |||
| Linden | NJ | 2026-05-09 01:55 | AWOS | 57 | 42 | 58 | 29.92 | 0 | N | |||
| Linden | NJ | 2026-05-09 02:15 | AWOS | 57 | 42 | 56 | 29.91 | 3 | SE | |||
| Linden | NJ | 2026-05-09 02:35 | AWOS | 57 | 42 | 57 | 29.91 | 0 | N | |||
| Linden | NJ | 2026-05-09 02:55 | AWOS | 56 | 43 | 62 | 29.90 | 3 | S | |||
| Linden | NJ | 2026-05-09 03:15 | AWOS | 56 | 45 | 66 | 29.90 | 3 | SSE | |||
| Linden | NJ | 2026-05-08 17:15 | AWOS | 64 | 35 | 35 | 29.87 | 9 | WNW | |||
| Linden | NJ | 2026-05-08 14:55 | AWOS | 63 | 33 | 33 | 29.88 | 15 | W | |||
| Linden | NJ | 2026-05-08 04:15 | AWOS | 50 | 36 | 60 | 29.88 | 10 | N | |||
| Linden | NJ | 2026-05-08 09:15 | AWOS | 55 | 36 | 49 | 29.93 | 10 | WNW | |||
| Linden | NJ | 2026-05-08 04:35 | AWOS | 49 | 37 | 64 | 29.88 | 8 | N | |||
| Linden | NJ | 2026-05-08 04:55 | AWOS | 48 | 38 | 68 | 29.88 | 7 | NNE | |||
| Linden | NJ | 2026-05-08 05:15 | AWOS | 49 | 38 | 66 | 29.88 | 6 | N | |||
| Linden | NJ | 2026-05-08 05:35 | AWOS | 47 | 38 | 69 | 29.89 | 6 | NW | |||
| Linden | NJ | 2026-05-08 05:55 | AWOS | 47 | 38 | 69 | 29.90 | 5 | NW | |||
| Linden | NJ | 2026-05-08 06:15 | AWOS | 46 | 38 | 72 | 29.90 | 3 | WNW | |||
| Linden | NJ | 2026-05-08 06:35 | AWOS | 47 | 38 | 72 | 29.91 | 5 | WNW | |||
| Linden | NJ | 2026-05-08 06:55 | AWOS | 47 | 39 | 73 | 29.91 | 6 | WNW | |||
| Linden | NJ | 2026-05-08 07:15 | AWOS | 48 | 39 | 71 | 29.92 | 8 | WNW | |||
| Linden | NJ | 2026-05-08 07:35 | AWOS | 49 | 39 | 69 | 29.92 | 7 | WNW | |||
| Linden | NJ | 2026-05-08 07:55 | AWOS | 50 | 39 | 66 | 29.93 | 6 | NW | |||
| Linden | NJ | 2026-05-08 08:15 | AWOS | 51 | 39 | 62 | 29.93 | 5 | NW | |||
| Linden | NJ | 2026-05-08 08:35 | AWOS | 53 | 38 | 57 | 29.92 | 8 | NW | |||
| Linden | NJ | 2026-05-08 08:55 | AWOS | 54 | 36 | 52 | 29.92 | 10 | WNW | |||
| Linden | NJ | 2026-05-08 09:35 | AWOS | 55 | 35 | 47 | 29.93 | 8 | WNW | |||
| Linden | NJ | 2026-05-08 14:35 | AWOS | 64 | 33 | 32 | 29.88 | 9 | W | |||
| Linden | NJ | 2026-05-08 09:55 | AWOS | 56 | 33 | 41 | 29.93 | 10 | WNW | |||
| Linden | NJ | 2026-05-08 10:15 | AWOS | 57 | 33 | 40 | 29.92 | 5 | WNW | |||
| Linden | NJ | 2026-05-08 10:35 | AWOS | 59 | 33 | 37 | 29.92 | 10 | NW | |||
| Linden | NJ | 2026-05-08 10:55 | AWOS | 58 | 32 | 37 | 29.91 | 7 | NW | |||
| Linden | NJ | 2026-05-08 11:15 | AWOS | 60 | 32 | 36 | 29.91 | 7 | W | |||
| Linden | NJ | 2026-05-08 11:35 | AWOS | 60 | 32 | 34 | 29.92 | 15 | NW | |||
| Linden | NJ | 2026-05-08 11:55 | AWOS | 59 | 30 | 32 | 29.92 | 14 | W | |||
| Linden | NJ | 2026-05-08 12:15 | AWOS | 60 | 32 | 34 | 29.92 | 14 | WNW | |||
| Linden | NJ | 2026-05-08 12:35 | AWOS | 60 | 31 | 33 | 29.91 | 10 | W | |||
| Linden | NJ | 2026-05-08 12:55 | AWOS | 60 | 32 | 35 | 29.90 | 16 | WNW | |||
| Linden | NJ | 2026-05-08 13:15 | AWOS | 61 | 32 | 34 | 29.89 | 22 | WNW | |||
| Linden | NJ | 2026-05-08 13:35 | AWOS | 63 | 34 | 34 | 29.89 | 9 | W | |||
| Linden | NJ | 2026-05-08 13:55 | AWOS | 63 | 33 | 33 | 29.89 | 14 | WNW | |||
| Linden | NJ | 2026-05-08 14:15 | AWOS | 61 | 32 | 34 | 29.88 | 12 | WNW | |||
| Linden | NJ | 2026-05-09 03:35 | AWOS | 56 | 45 | 68 | 29.90 | 0 | N |
data collection created in 0.012330055236816 (queried in 0.004063) rendered in: 8.702278137207E-5

